Time;durP1;ratioP1;P1;durP2;ratioP2;P2;SDS_P1;SDS_P2;PMS_P1;PMS_P2;Temp;Humidity;BMP_temperature;BMP_pressure;BME280_temperature;BME280_humidity;BME280_pressure;Samples;Min_cycle;Max_cycle;Signal;HPM_P1;HPM_P2
2021/07/08 00:01:49;;;;;;;11.80;9.27;;;;;;;26.47;100.00;101366.53;4863995;29;20030;-77
2021/07/08 00:04:37;;;;;;;14.63;9.32;;;;;;;26.64;100.00;101371.59;4863753;29;20136;-77
2021/07/08 00:07:23;;;;;;;13.20;9.07;;;;;;;26.63;100.00;101375.22;4848647;29;20510;-78
2021/07/08 00:10:16;;;;;;;12.30;9.95;;;;;;;26.50;100.00;101377.94;4863622;29;20075;-77
2021/07/08 00:13:03;;;;;;;12.15;10.05;;;;;;;26.55;100.00;101383.81;4864350;29;20025;-77
2021/07/08 00:15:50;;;;;;;12.80;9.88;;;;;;;26.16;100.00;101384.00;4850379;29;20060;-78
2021/07/08 00:18:36;;;;;;;14.73;10.82;;;;;;;25.78;100.00;101390.31;4863579;29;20065;-78
2021/07/08 00:21:22;;;;;;;13.85;10.63;;;;;;;25.45;100.00;101389.97;4850397;29;20033;-78
2021/07/08 00:24:08;;;;;;;11.00;9.75;;;;;;;26.00;100.00;101385.22;4862483;29;20040;-77
2021/07/08 00:26:54;;;;;;;14.43;10.35;;;;;;;25.95;100.00;101382.84;4863475;29;20094;-77
2021/07/08 00:29:39;;;;;;;14.48;10.00;;;;;;;26.30;100.00;101375.84;4850533;29;20037;-76
2021/07/08 00:32:26;;;;;;;13.35;10.68;;;;;;;26.11;100.00;101375.41;4862769;29;20363;-77
2021/07/08 00:35:12;;;;;;;14.90;10.50;;;;;;;26.20;100.00;101376.59;4862352;29;20069;-77
2021/07/08 00:37:57;;;;;;;14.07;11.20;;;;;;;26.14;100.00;101374.34;4862454;29;20033;-77
2021/07/08 00:40:43;;;;;;;13.73;10.15;;;;;;;26.15;100.00;101382.28;4850540;29;20033;-77
2021/07/08 00:43:31;;;;;;;13.23;10.63;;;;;;;26.41;100.00;101385.81;4862085;29;20080;-77
2021/07/08 00:46:17;;;;;;;13.70;10.65;;;;;;;26.35;100.00;101389.78;4850800;29;20490;-77
2021/07/08 00:49:03;;;;;;;12.77;10.20;;;;;;;26.03;100.00;101388.53;4862137;29;20037;-77
2021/07/08 00:51:49;;;;;;;15.45;11.07;;;;;;;25.97;100.00;101388.13;4862131;29;20098;-77
2021/07/08 00:54:35;;;;;;;11.63;10.05;;;;;;;25.92;100.00;101399.13;4861982;29;20070;-77
2021/07/08 00:57:22;;;;;;;13.73;10.57;;;;;;;26.31;100.00;101398.16;4862531;29;20029;-77
2021/07/08 01:00:09;;;;;;;11.40;10.20;;;;;;;25.75;100.00;101396.78;4861879;29;20044;-77
2021/07/08 01:02:56;;;;;;;13.82;10.88;;;;;;;26.15;100.00;101393.03;4862186;29;20070;-77
2021/07/08 01:05:45;;;;;;;13.48;10.95;;;;;;;26.09;100.00;101398.00;4861085;29;20064;-77
2021/07/08 01:08:31;;;;;;;14.50;13.00;;;;;;;25.94;100.00;101396.38;4850002;29;20400;-77
2021/07/08 01:11:17;;;;;;;20.63;15.13;;;;;;;25.52;100.00;101407.38;4862350;29;20037;-77
2021/07/08 01:14:05;;;;;;;19.75;15.13;;;;;;;25.51;100.00;101408.34;4861872;29;20033;-77
2021/07/08 01:16:51;;;;;;;18.27;14.20;;;;;;;25.54;100.00;101410.81;4849219;29;20065;-77
2021/07/08 01:19:41;;;;;;;18.70;15.10;;;;;;;25.72;100.00;101406.88;4861509;29;20101;-77
2021/07/08 01:22:27;;;;;;;21.48;15.48;;;;;;;25.47;100.00;101414.91;4861991;29;20045;-77
2021/07/08 01:25:14;;;;;;;19.55;15.07;;;;;;;25.26;100.00;101408.25;4848671;29;20137;-77
2021/07/08 01:28:02;;;;;;;21.10;16.13;;;;;;;25.08;100.00;101409.47;4862202;29;20082;-77
2021/07/08 01:30:48;;;;;;;16.58;14.70;;;;;;;25.22;100.00;101409.41;4861491;29;20036;-77
2021/07/08 01:33:34;;;;;;;18.83;14.57;;;;;;;25.31;100.00;101406.16;4848767;29;20034;-78
2021/07/08 01:36:20;;;;;;;19.77;15.43;;;;;;;24.69;100.00;101406.72;4849104;29;20420;-77
2021/07/08 01:39:06;;;;;;;18.35;14.48;;;;;;;25.08;100.00;101396.91;4849056;29;20061;-78
2021/07/08 01:41:52;;;;;;;16.77;13.98;;;;;;;25.25;100.00;101403.84;4861139;29;20531;-77
2021/07/08 01:44:38;;;;;;;17.58;15.00;;;;;;;25.03;100.00;101408.94;4862215;29;20078;-77
2021/07/08 01:47:24;;;;;;;18.50;15.15;;;;;;;25.04;100.00;101410.66;4861696;29;20072;-77
2021/07/08 01:50:16;;;;;;;18.75;14.85;;;;;;;25.18;100.00;101405.22;4862056;29;20441;-77
2021/07/08 01:53:02;;;;;;;20.88;15.27;;;;;;;25.07;100.00;101405.94;4860894;29;20038;-78
2021/07/08 01:55:48;;;;;;;17.70;14.77;;;;;;;24.97;100.00;101409.31;4850059;29;20121;-77
2021/07/08 01:58:34;;;;;;;20.45;15.27;;;;;;;24.87;100.00;101408.22;4861476;29;20463;-77
2021/07/08 02:01:21;;;;;;;17.92;14.25;;;;;;;24.97;100.00;101417.38;4848692;29;20040;-77
2021/07/08 02:04:07;;;;;;;19.23;15.07;;;;;;;25.03;100.00;101407.09;4861966;29;20486;-78
2021/07/08 02:06:52;;;;;;;18.35;14.98;;;;;;;25.00;100.00;101406.44;4861269;29;20037;-77
2021/07/08 02:09:38;;;;;;;18.48;14.73;;;;;;;25.04;100.00;101411.50;4861407;29;20108;-77
2021/07/08 02:12:24;;;;;;;19.60;16.17;;;;;;;25.04;100.00;101413.34;4848120;29;20025;-78
2021/07/08 02:15:11;;;;;;;17.75;15.70;;;;;;;24.79;100.00;101418.59;4861400;29;20467;-77
2021/07/08 02:17:56;;;;;;;21.38;16.42;;;;;;;24.73;100.00;101418.97;4849212;29;20048;-77
2021/07/08 02:20:43;;;;;;;19.30;15.02;;;;;;;24.70;100.00;101414.66;4848676;29;20034;-78
2021/07/08 02:23:29;;;;;;;18.27;15.45;;;;;;;24.80;100.00;101415.81;4861149;29;20045;-78
2021/07/08 02:26:16;;;;;;;18.83;15.00;;;;;;;24.51;100.00;101418.63;4849699;29;20039;-78
2021/07/08 02:29:02;;;;;;;16.98;14.18;;;;;;;24.79;100.00;101413.22;4862537;29;20037;-78
2021/07/08 02:31:49;;;;;;;18.00;15.18;;;;;;;25.01;100.00;101424.25;4864638;29;20499;-78
2021/07/08 02:34:36;;;;;;;17.85;14.82;;;;;;;24.97;100.00;101420.94;4864356;29;20033;-78
2021/07/08 02:37:22;;;;;;;21.98;15.32;;;;;;;25.06;100.00;101428.34;4864953;29;20025;-78
2021/07/08 02:40:18;;;;;;;17.90;14.20;;;;;;;25.05;100.00;101432.00;4852752;29;20109;-78
2021/07/08 02:43:05;;;;;;;18.85;15.40;;;;;;;24.77;100.00;101433.91;4851706;29;20573;-78
2021/07/08 02:45:51;;;;;;;18.58;15.18;;;;;;;24.65;100.00;101437.38;4839181;29;20033;-78
2021/07/08 02:48:37;;;;;;;21.48;15.95;;;;;;;24.77;100.00;101444.63;4864183;29;20041;-77
2021/07/08 02:51:23;;;;;;;18.67;14.98;;;;;;;24.92;100.00;101441.81;4864748;29;20098;-77
2021/07/08 02:54:09;;;;;;;18.77;15.30;;;;;;;24.86;100.00;101436.84;4851035;29;20064;-77
2021/07/08 02:56:55;;;;;;;20.15;14.70;;;;;;;25.03;100.00;101444.63;4864325;29;20030;-78
2021/07/08 02:59:40;;;;;;;19.30;15.63;;;;;;;24.89;100.00;101449.19;4864068;29;20466;-78
2021/07/08 03:02:26;;;;;;;17.90;15.02;;;;;;;24.89;100.00;101446.50;4851050;29;20041;-78
2021/07/08 03:05:13;;;;;;;19.63;14.98;;;;;;;24.51;100.00;101456.97;4863311;29;20043;-77
2021/07/08 03:07:59;;;;;;;18.63;14.30;;;;;;;24.67;100.00;101460.44;4864186;29;20363;-78
2021/07/08 03:10:45;;;;;;;19.55;15.38;;;;;;;24.72;100.00;101457.47;4850625;29;20025;-77
2021/07/08 03:13:31;;;;;;;17.08;14.77;;;;;;;24.68;100.00;101458.63;4850975;29;20097;-77
2021/07/08 03:16:17;;;;;;;22.35;15.27;;;;;;;24.96;100.00;101450.50;4864822;29;20030;-78
2021/07/08 03:19:03;;;;;;;20.27;15.50;;;;;;;24.87;100.00;101459.16;4863816;29;20145;-78
2021/07/08 03:21:49;;;;;;;20.38;15.88;;;;;;;24.96;100.00;101462.13;4864231;29;20443;-78
2021/07/08 03:24:35;;;;;;;21.13;15.65;;;;;;;24.87;100.00;101457.31;4851044;29;20469;-78
2021/07/08 03:27:20;;;;;;;20.70;15.20;;;;;;;24.83;100.00;101469.22;4863932;29;20101;-78
2021/07/08 03:30:09;;;;;;;25.17;15.75;;;;;;;24.63;100.00;101472.31;4850832;29;20491;-78
2021/07/08 03:32:55;;;;;;;19.05;14.65;;;;;;;24.73;100.00;101473.47;4863176;29;20108;-77
2021/07/08 03:35:41;;;;;;;20.30;15.15;;;;;;;24.38;100.00;101479.25;4849882;29;20029;-77
2021/07/08 03:38:27;;;;;;;18.05;15.68;;;;;;;24.98;100.00;101470.91;4863919;29;20040;-77
2021/07/08 03:41:12;;;;;;;19.20;15.50;;;;;;;25.05;100.00;101474.91;4862455;29;20029;-77
2021/07/08 03:43:59;;;;;;;17.30;14.70;;;;;;;25.20;100.00;101484.63;4863699;29;20426;-77
2021/07/08 03:46:45;;;;;;;16.77;14.13;;;;;;;24.79;100.00;101489.13;4863707;29;20033;-77
2021/07/08 03:49:30;;;;;;;18.30;14.27;;;;;;;25.08;100.00;101492.63;4863694;29;20030;-77
2021/07/08 03:52:16;;;;;;;20.02;15.00;;;;;;;24.98;100.00;101486.13;4850697;29;20325;-77
2021/07/08 03:55:02;;;;;;;17.95;15.05;;;;;;;25.25;100.00;101493.25;4863036;29;20029;-77
2021/07/08 03:57:57;;;;;;;18.88;14.57;;;;;;;25.35;100.00;101490.84;4851669;29;20025;-77
2021/07/08 04:00:43;;;;;;;18.45;14.70;;;;;;;25.03;100.00;101503.63;4850273;29;20037;-77
2021/07/08 04:03:29;;;;;;;21.58;15.48;;;;;;;25.00;100.00;101494.94;4850619;29;20112;-77
2021/07/08 04:06:15;;;;;;;18.77;16.02;;;;;;;25.20;100.00;101497.19;4862825;29;20112;-77
2021/07/08 04:09:01;;;;;;;20.98;15.60;;;;;;;25.05;100.00;101499.06;4850081;29;20051;-76
2021/07/08 04:11:46;;;;;;;18.20;16.30;;;;;;;24.63;100.00;101503.63;4862848;29;20108;-76
2021/07/08 04:14:32;;;;;;;19.98;14.85;;;;;;;24.95;100.00;101500.59;4863046;29;20026;-77
2021/07/08 04:17:18;;;;;;;18.50;15.50;;;;;;;24.74;100.00;101499.28;4863195;29;20128;-77
2021/07/08 04:20:07;;;;;;;17.85;15.70;;;;;;;25.02;100.00;101493.88;4862839;29;20033;-77
2021/07/08 04:22:54;;;;;;;20.60;15.60;;;;;;;25.13;100.00;101501.22;4851100;29;20036;-77
2021/07/08 04:25:40;;;;;;;20.27;15.20;;;;;;;24.80;100.00;101508.75;4850174;29;20474;-77
2021/07/08 04:28:26;;;;;;;22.38;15.40;;;;;;;25.14;100.00;101494.88;4863062;29;20034;-77
2021/07/08 04:31:16;;;;;;;20.30;14.93;;;;;;;25.43;100.00;101510.00;4850778;29;20475;-77
2021/07/08 04:34:02;;;;;;;19.13;15.05;;;;;;;25.42;100.00;101505.56;4850686;29;20037;-77
2021/07/08 04:36:48;;;;;;;20.25;14.43;;;;;;;25.33;100.00;101500.81;4862276;29;20033;-78
2021/07/08 04:39:33;;;;;;;16.80;14.18;;;;;;;25.55;100.00;101511.88;4849730;29;20029;-78
2021/07/08 04:42:19;;;;;;;20.85;14.80;;;;;;;25.51;100.00;101508.50;4849469;29;20054;-78
2021/07/08 04:45:07;;;;;;;22.60;15.60;;;;;;;25.74;100.00;101510.50;4850834;29;20113;-78
2021/07/08 04:47:53;;;;;;;19.48;14.98;;;;;;;25.81;100.00;101510.94;4862983;29;20029;-78
2021/07/08 04:50:38;;;;;;;19.42;15.13;;;;;;;25.34;100.00;101513.25;4862421;29;20049;-78
2021/07/08 04:53:24;;;;;;;18.90;14.85;;;;;;;25.46;100.00;101515.13;4850083;29;20036;-79
2021/07/08 04:56:10;;;;;;;19.02;14.52;;;;;;;25.62;100.00;101519.38;4862293;29;20455;-78
2021/07/08 04:58:56;;;;;;;19.00;15.15;;;;;;;25.84;100.00;101516.97;4862556;29;20041;-78
2021/07/08 05:01:41;;;;;;;16.77;14.98;;;;;;;25.76;100.00;101519.31;4862155;29;20032;-78
2021/07/08 05:04:27;;;;;;;19.02;14.98;;;;;;;25.72;100.00;101525.84;4861898;29;20026;-78
2021/07/08 05:07:15;;;;;;;18.05;14.70;;;;;;;25.66;100.00;101520.91;4862347;29;20482;-79
2021/07/08 05:10:02;;;;;;;19.67;14.73;;;;;;;25.99;100.00;101526.69;4850463;29;20037;-78
2021/07/08 05:12:48;;;;;;;21.15;15.25;;;;;;;26.30;100.00;101528.13;4860664;29;20490;-79
2021/07/08 05:15:35;;;;;;;18.45;14.45;;;;;;;26.52;100.00;101528.34;4850351;29;20072;-78
2021/07/08 05:18:22;;;;;;;18.10;13.88;;;;;;;26.35;100.00;101536.72;4861862;29;20030;-78
2021/07/08 05:21:09;;;;;;;19.83;14.50;;;;;;;26.25;100.00;101541.03;4849392;29;20089;-77
2021/07/08 05:23:58;;;;;;;19.95;14.18;;;;;;;26.49;100.00;101544.69;4849714;29;20041;-77
2021/07/08 05:26:44;;;;;;;18.50;13.40;;;;;;;26.16;100.00;101557.78;4862036;29;20041;-78
2021/07/08 05:29:30;;;;;;;18.90;13.63;;;;;;;26.40;100.00;101556.94;4849043;29;20037;-78
2021/07/08 05:32:17;;;;;;;22.63;14.00;;;;;;;26.52;100.00;101564.16;4861364;29;20025;-78
2021/07/08 05:35:05;;;;;;;19.92;12.95;;;;;;;26.70;100.00;101557.53;4861182;29;20048;-77
2021/07/08 05:37:52;;;;;;;21.20;13.80;;;;;;;26.69;100.00;101557.63;4849035;29;20503;-78
2021/07/08 05:40:38;;;;;;;20.92;13.38;;;;;;;26.33;100.00;101560.16;4861880;29;20088;-77
2021/07/08 05:43:24;;;;;;;18.13;13.32;;;;;;;26.17;100.00;101563.06;4861209;29;20340;-77
2021/07/08 05:46:10;;;;;;;16.30;13.52;;;;;;;26.16;100.00;101563.16;4861831;29;20070;-78
2021/07/08 05:48:55;;;;;;;23.98;15.98;;;;;;;26.62;100.00;101567.09;4861575;29;20048;-77
2021/07/08 05:51:41;;;;;;;16.83;12.48;;;;;;;26.55;100.00;101563.94;4861530;29;20034;-78
2021/07/08 05:54:27;;;;;;;20.40;12.88;;;;;;;26.49;100.00;101568.88;4848544;29;20037;-79
2021/07/08 05:57:13;;;;;;;15.18;13.40;;;;;;;26.49;100.00;101560.81;4861681;29;20033;-79
2021/07/08 05:59:58;;;;;;;15.93;12.43;;;;;;;26.49;100.00;101569.72;4860832;29;20124;-79
2021/07/08 06:02:44;;;;;;;18.65;12.85;;;;;;;26.27;100.00;101560.56;4848282;29;20058;-78
2021/07/08 06:05:30;;;;;;;16.98;12.95;;;;;;;26.85;100.00;101569.00;4851521;29;20222;-78
2021/07/08 06:08:17;;;;;;;16.75;13.27;;;;;;;26.94;100.00;101569.22;4852899;29;20033;-77
2021/07/08 06:11:02;;;;;;;16.33;12.88;;;;;;;27.01;100.00;101573.16;4865061;29;20487;-78
2021/07/08 06:13:48;;;;;;;22.13;13.38;;;;;;;27.31;100.00;101570.97;4852336;29;20041;-78
2021/07/08 06:16:34;;;;;;;15.10;12.48;;;;;;;27.03;100.00;101568.53;4852948;29;20419;-79
2021/07/08 06:19:20;;;;;;;16.00;13.32;;;;;;;27.55;100.00;101570.16;4864568;29;20025;-79
2021/07/08 06:22:06;;;;;;;15.55;12.30;;;;;;;27.43;100.00;101577.28;4851655;29;20033;-79
2021/07/08 06:24:51;;;;;;;15.10;11.88;;;;;;;28.04;100.00;101570.91;4864318;29;20033;-79
2021/07/08 06:27:37;;;;;;;15.20;11.90;;;;;;;27.21;100.00;101572.63;4851270;29;20025;-79
2021/07/08 06:30:23;;;;;;;15.20;11.70;;;;;;;27.52;100.00;101573.06;4863558;29;20030;-78
2021/07/08 06:33:09;;;;;;;15.45;11.75;;;;;;;27.09;100.00;101569.94;4852570;29;20022;-78
2021/07/08 06:35:55;;;;;;;14.43;11.48;;;;;;;27.20;100.00;101568.22;4864477;29;20089;-78
2021/07/08 06:38:41;;;;;;;16.73;11.55;;;;;;;27.37;100.00;101573.22;4864118;29;20029;-78
2021/07/08 06:41:27;;;;;;;16.20;11.82;;;;;;;27.28;100.00;101579.28;4864631;29;20022;-78
2021/07/08 06:44:12;;;;;;;16.23;11.43;;;;;;;27.53;100.00;101583.72;4863778;29;20065;-78
2021/07/08 06:46:59;;;;;;;19.95;11.32;;;;;;;28.00;100.00;101577.50;4851364;29;20048;-78
2021/07/08 06:49:44;;;;;;;15.05;11.20;;;;;;;27.94;100.00;101576.13;4863487;29;20113;-78
2021/07/08 06:52:32;;;;;;;13.07;11.15;;;;;;;28.39;100.00;101579.78;4864582;29;20068;-78
2021/07/08 06:55:18;;;;;;;16.80;11.88;;;;;;;28.56;100.00;101582.09;4863918;29;20029;-78
2021/07/08 06:58:04;;;;;;;12.93;10.98;;;;;;;28.62;100.00;101578.88;4851472;29;20045;-78
2021/07/08 07:00:50;;;;;;;11.85;10.65;;;;;;;28.93;100.00;101583.59;4863518;29;20068;-78
2021/07/08 07:03:36;;;;;;;12.52;11.27;;;;;;;28.54;100.00;101579.50;4851449;29;20045;-78
2021/07/08 07:06:22;;;;;;;12.07;10.20;;;;;;;28.91;100.00;101589.09;4851780;29;20033;-78
2021/07/08 07:09:07;;;;;;;14.90;10.13;;;;;;;29.04;100.00;101587.16;4864004;29;20030;-78
2021/07/08 07:11:53;;;;;;;12.18;8.95;;;;;;;28.82;100.00;101570.94;4864425;29;20033;-78
2021/07/08 07:14:42;;;;;;;9.70;8.40;;;;;;;29.23;100.00;101587.41;4850949;29;20352;-77
2021/07/08 07:17:33;;;;;;;13.13;9.00;;;;;;;29.34;100.00;101591.91;4864940;29;20248;-77
2021/07/08 07:20:20;;;;;;;13.68;9.13;;;;;;;28.72;100.00;101583.44;4851185;29;20071;-77
2021/07/08 07:23:06;;;;;;;11.50;9.23;;;;;;;29.02;100.00;101589.13;4851186;29;20416;-78
2021/07/08 07:25:52;;;;;;;11.65;9.32;;;;;;;29.23;100.00;101595.50;4864401;29;20029;-77
2021/07/08 07:28:40;;;;;;;12.23;9.13;;;;;;;29.51;100.00;101589.56;4866322;29;20029;-77
2021/07/08 07:31:26;;;;;;;14.85;8.88;;;;;;;29.59;100.00;101587.09;4839185;29;20085;-77
2021/07/08 07:34:14;;;;;;;11.82;8.80;;;;;;;29.47;100.00;101582.69;4852325;29;20097;-78
2021/07/08 07:37:00;;;;;;;12.55;8.80;;;;;;;29.72;100.00;101590.50;4851232;29;20044;-78
2021/07/08 07:39:46;;;;;;;14.60;8.20;;;;;;;29.59;100.00;101595.22;4851849;29;20048;-77
2021/07/08 07:42:33;;;;;;;15.30;8.68;;;;;;;29.92;100.00;101587.00;4851375;29;20522;-78
2021/07/08 07:45:19;;;;;;;8.73;7.65;;;;;;;29.45;100.00;101590.03;4864922;29;20540;-77
2021/07/08 07:48:05;;;;;;;13.30;7.50;;;;;;;29.56;100.00;101592.72;4851760;29;20112;-78
2021/07/08 07:50:51;;;;;;;8.45;7.55;;;;;;;30.02;100.00;101587.91;4851710;29;20022;-77
2021/07/08 07:53:37;;;;;;;15.85;7.38;;;;;;;29.26;100.00;101597.09;4863669;29;20116;-78
2021/07/08 07:56:26;;;;;;;10.02;7.68;;;;;;;29.94;100.00;101593.09;4863688;29;20029;-78
2021/07/08 07:59:11;;;;;;;11.35;7.57;;;;;;;30.20;100.00;101599.91;4865832;29;20054;-78
2021/07/08 08:01:57;;;;;;;10.50;7.25;;;;;;;30.49;100.00;101603.66;4865136;29;20033;-78
2021/07/08 08:04:57;;;;;;;9.35;7.20;;;;;;;30.09;100.00;101602.63;4864944;29;20033;-78
2021/07/08 08:10:49;;;;;;;8.05;6.90;;;;;;;30.35;100.00;101598.59;4863504;29;20041;-78
2021/07/08 08:13:34;;;;;;;10.20;7.18;;;;;;;30.05;100.00;101606.56;4862688;29;20072;-76
2021/07/08 08:16:20;;;;;;;12.30;6.60;;;;;;;30.12;100.00;101602.38;4863312;29;20417;-76
2021/07/08 08:19:06;;;;;;;9.45;6.47;;;;;;;30.51;100.00;101609.81;4862872;29;20040;-76
2021/07/08 08:21:55;;;;;;;7.28;5.90;;;;;;;30.38;100.00;101601.03;4863808;29;20515;-77
2021/07/08 08:24:41;;;;;;;8.40;5.65;;;;;;;30.11;100.00;101597.09;4850559;29;20037;-77
2021/07/08 08:27:26;;;;;;;8.63;5.22;;;;;;;31.04;100.00;101600.59;4851634;29;20066;-76
2021/07/08 08:30:13;;;;;;;6.57;5.40;;;;;;;31.66;100.00;101610.34;4864318;29;20061;-77
2021/07/08 08:32:59;;;;;;;7.45;5.60;;;;;;;31.11;100.00;101603.59;4850935;29;20030;-75
2021/07/08 08:35:45;;;;;;;9.60;5.68;;;;;;;31.25;100.00;101605.97;4864711;29;20109;-78
2021/07/08 08:38:31;;;;;;;7.35;5.30;;;;;;;31.45;100.00;101605.00;4863468;29;20044;-78
2021/07/08 08:41:18;;;;;;;7.13;4.90;;;;;;;31.58;100.00;101612.91;4863106;29;20086;-77
2021/07/08 08:44:05;;;;;;;9.05;5.43;;;;;;;31.87;100.00;101621.97;4850100;29;20429;-77
2021/07/08 08:46:52;;;;;;;6.30;4.80;;;;;;;31.54;100.00;101620.44;4861782;29;20034;-77
2021/07/08 08:49:43;;;;;;;9.63;5.20;;;;;;;31.31;100.00;101611.69;4862626;29;20049;-77
2021/07/08 08:52:30;;;;;;;14.10;5.47;;;;;;;32.06;100.00;101616.56;4851131;29;20366;-77
2021/07/08 08:55:19;;;;;;;7.63;4.90;;;;;;;32.29;100.00;101617.94;4851728;29;20069;-78
2021/07/08 08:58:16;;;;;;;6.13;4.40;;;;;;;32.02;100.00;101624.09;4863097;29;20033;-76
2021/07/08 09:01:05;;;;;;;6.50;4.55;;;;;;;31.38;100.00;101624.69;4848885;29;20116;-76
2021/07/08 09:03:51;;;;;;;6.45;4.93;;;;;;;31.54;100.00;101619.59;4864656;29;20120;-79
2021/07/08 09:06:39;;;;;;;7.35;4.78;;;;;;;31.92;100.00;101627.81;4864048;29;20033;-78
2021/07/08 09:09:31;;;;;;;6.43;4.68;;;;;;;31.77;100.00;101619.22;4863200;29;20048;-76
2021/07/08 09:12:17;;;;;;;5.43;4.85;;;;;;;31.67;100.00;101620.19;4861163;29;20026;-76
2021/07/08 09:15:20;;;;;;;6.30;4.53;;;;;;;31.82;100.00;101622.38;4862833;29;20336;-77
2021/07/08 09:18:06;;;;;;;9.98;4.50;;;;;;;32.06;100.00;101620.09;4862039;29;20072;-78
2021/07/08 09:20:52;;;;;;;6.25;5.20;;;;;;;32.30;100.00;101623.28;4862476;29;20367;-77
2021/07/08 09:23:38;;;;;;;8.10;4.88;;;;;;;31.86;100.00;101617.53;4849230;29;20034;-77
2021/07/08 09:26:23;;;;;;;5.93;4.68;;;;;;;32.46;100.00;101615.41;4863806;29;20033;-78
2021/07/08 09:29:15;;;;;;;7.55;4.50;;;;;;;32.24;100.00;101621.13;4861530;29;20376;-77
2021/07/08 09:32:02;;;;;;;7.90;4.60;;;;;;;32.22;100.00;101614.97;4848440;29;20021;-77
2021/07/08 09:34:58;;;;;;;5.88;4.55;;;;;;;32.00;100.00;101614.41;4862807;29;20033;-76
2021/07/08 09:37:43;;;;;;;12.18;4.85;;;;;;;32.23;100.00;101615.84;4862800;29;20037;-77
2021/07/08 09:40:29;;;;;;;5.55;4.32;;;;;;;32.29;100.00;101617.94;4863107;29;20065;-77
2021/07/08 09:43:30;;;;;;;5.60;4.07;;;;;;;32.42;100.00;101605.84;4860557;29;20041;-78
2021/07/08 09:46:16;;;;;;;5.63;4.65;;;;;;;32.35;100.00;101603.84;4863504;29;20044;-78
2021/07/08 09:49:07;;;;;;;8.25;4.47;;;;;;;32.11;100.00;101609.72;4862264;29;20026;-78
2021/07/08 09:51:57;;;;;;;5.82;4.30;;;;;;;31.75;100.00;101606.78;4863143;29;20033;-77
2021/07/08 09:55:00;;;;;;;5.05;4.30;;;;;;;31.65;100.00;101605.94;4850802;29;20104;-77
2021/07/08 09:57:48;;;;;;;5.88;4.15;;;;;;;31.47;100.00;101603.03;4861764;29;20459;-77
2021/07/08 10:00:34;;;;;;;5.95;4.30;;;;;;;31.95;100.00;101605.84;4861482;29;20034;-77
2021/07/08 10:03:20;;;;;;;5.47;4.32;;;;;;;31.91;100.00;101604.41;4862597;29;20037;-77
2021/07/08 10:06:16;;;;;;;5.53;4.43;;;;;;;31.42;100.00;101606.16;4862514;29;20109;-77
2021/07/08 10:09:05;;;;;;;5.90;4.50;;;;;;;30.46;100.00;101609.34;4862965;29;20030;-77
2021/07/08 10:11:55;;;;;;;5.55;3.95;;;;;;;31.31;100.00;101600.84;4862842;29;20033;-77
2021/07/08 10:14:43;;;;;;;6.57;4.45;;;;;;;31.13;100.00;101596.19;4863416;29;20511;-78
2021/07/08 10:17:31;;;;;;;6.40;4.60;;;;;;;31.35;100.00;101593.31;4862310;29;20037;-78
2021/07/08 10:20:18;;;;;;;5.40;4.22;;;;;;;31.25;100.00;101582.44;4861874;29;20451;-78
2021/07/08 10:23:05;;;;;;;7.30;5.00;;;;;;;31.15;100.00;101588.78;4861368;29;20164;-78
2021/07/08 10:25:51;;;;;;;5.82;4.40;;;;;;;31.30;100.00;101582.03;4861829;29;20033;-78
2021/07/08 10:28:43;;;;;;;5.00;4.50;;;;;;;31.81;100.00;101603.56;4862215;29;20392;-78
2021/07/08 10:31:29;;;;;;;5.15;4.47;;;;;;;31.60;100.00;101590.09;4862404;29;20053;-78
2021/07/08 10:34:17;;;;;;;5.60;4.15;;;;;;;31.52;100.00;101591.75;4848643;29;20112;-78
2021/07/08 10:37:07;;;;;;;4.80;4.22;;;;;;;31.30;100.00;101582.03;4860910;29;20060;-78
2021/07/08 10:39:55;;;;;;;5.30;4.70;;;;;;;32.03;100.00;101590.59;4849832;29;20531;-78
2021/07/08 10:42:49;;;;;;;7.40;4.20;;;;;;;31.51;100.00;101588.22;4861673;29;20053;-78
2021/07/08 10:45:35;;;;;;;6.95;4.47;;;;;;;31.72;100.00;101579.97;4861167;29;20375;-78
2021/07/08 10:48:24;;;;;;;6.00;4.45;;;;;;;32.12;100.00;101578.88;4849825;29;20036;-78
2021/07/08 10:51:28;;;;;;;5.40;4.57;;;;;;;31.70;100.00;101569.25;4864726;29;20045;-78
2021/07/08 10:54:30;;;;;;;6.75;4.88;;;;;;;32.00;100.00;101566.47;4864696;29;20025;-78
2021/07/08 10:57:37;;;;;;;5.00;4.50;;;;;;;32.28;100.00;101560.16;4865585;29;20117;-78
2021/07/08 11:00:42;;;;;;;8.10;4.50;;;;;;;31.96;100.00;101570.44;4852606;29;20120;-78
2021/07/08 11:03:45;;;;;;;7.05;4.80;;;;;;;32.00;100.00;101557.44;4865052;29;20101;-77
2021/07/08 11:06:43;;;;;;;5.53;4.78;;;;;;;31.33;100.00;101557.38;4851447;29;20039;-77
2021/07/08 11:09:30;;;;;;;7.80;4.63;;;;;;;31.75;100.00;101561.56;4853348;29;20089;-76
2021/07/08 11:12:43;;;;;;;6.57;4.55;;;;;;;31.64;100.00;101566.25;4851607;29;20065;-77
2021/07/08 11:15:54;;;;;;;6.38;5.03;;;;;;;32.21;100.00;101569.84;4863915;29;20033;-76
2021/07/08 11:18:40;;;;;;;7.47;4.80;;;;;;;32.08;100.00;101572.03;4864130;29;20363;-77
2021/07/08 11:22:04;;;;;;;6.18;4.57;;;;;;;32.68;100.00;101568.06;4865042;29;20111;-78
2021/07/08 11:24:51;;;;;;;6.28;4.68;;;;;;;32.60;100.00;101559.81;4852096;29;20116;-77
2021/07/08 11:27:40;;;;;;;7.00;4.20;;;;;;;32.49;100.00;101543.69;4852410;29;20223;-76
2021/07/08 11:30:28;;;;;;;7.72;4.35;;;;;;;32.88;98.14;101548.00;4865296;29;20514;-76
2021/07/08 11:33:19;;;;;;;10.85;4.32;;;;;;;32.33;98.54;101535.31;4865292;29;20075;-75
2021/07/08 11:36:12;;;;;;;6.07;4.15;;;;;;;32.41;95.60;101535.44;4863975;29;20441;-75
2021/07/08 11:38:59;;;;;;;7.68;4.28;;;;;;;32.50;98.10;101542.72;4865546;29;20037;-79
2021/07/08 11:41:47;;;;;;;7.50;4.30;;;;;;;32.68;98.29;101536.34;4852107;29;20033;-76
2021/07/08 11:44:33;;;;;;;10.48;4.68;;;;;;;33.03;99.91;101535.66;4851846;29;20560;-78
2021/07/08 11:47:20;;;;;;;11.65;4.63;;;;;;;33.43;95.58;101541.59;4864621;29;20030;-78
2021/07/08 11:50:28;;;;;;;8.15;4.65;;;;;;;32.96;96.09;101539.97;4851157;29;20021;-78
2021/07/08 11:53:19;;;;;;;5.88;4.30;;;;;;;33.07;94.84;101531.63;4862723;29;20101;-77
2021/07/08 11:56:05;;;;;;;7.05;4.35;;;;;;;33.17;94.06;101530.56;4863426;29;20455;-78
2021/07/08 11:58:51;;;;;;;9.48;5.45;;;;;;;33.11;98.93;101546.63;4851589;29;20459;-78
2021/07/08 12:01:40;;;;;;;11.10;5.10;;;;;;;32.06;100.00;101536.03;4849576;29;20038;-78
2021/07/08 12:04:27;;;;;;;7.53;4.90;;;;;;;31.12;100.00;101532.19;4864026;29;20056;-78
2021/07/08 12:07:13;;;;;;;9.02;5.30;;;;;;;31.22;100.00;101535.81;4851526;29;20075;-78
2021/07/08 12:09:59;;;;;;;9.65;5.00;;;;;;;31.81;100.00;101533.09;4851718;29;20034;-78
2021/07/08 12:12:44;;;;;;;5.97;4.95;;;;;;;32.14;100.00;101538.88;4862988;29;20435;-78
2021/07/08 12:15:30;;;;;;;8.15;5.57;;;;;;;32.13;100.00;101544.44;4863544;29;20030;-78
2021/07/08 12:18:16;;;;;;;8.80;5.75;;;;;;;32.15;100.00;101531.59;4850014;29;20470;-77
2021/07/08 12:21:16;;;;;;;16.15;5.85;;;;;;;32.01;100.00;101546.47;4851173;29;20508;-77
2021/07/08 12:24:05;;;;;;;7.80;5.65;;;;;;;30.97;100.00;101547.97;4863242;29;20029;-77
2021/07/08 12:27:05;;;;;;;10.30;5.82;;;;;;;31.89;100.00;101557.63;4862937;29;20474;-78
2021/07/08 12:29:51;;;;;;;6.45;5.63;;;;;;;32.26;100.00;101545.84;4851284;29;20033;-77
2021/07/08 12:32:36;;;;;;;8.77;5.97;;;;;;;31.15;100.00;101549.00;4862890;29;20034;-78
2021/07/08 12:35:25;;;;;;;9.80;5.57;;;;;;;31.70;100.00;101560.28;4863535;29;20029;-78
2021/07/08 12:38:13;;;;;;;7.47;5.28;;;;;;;32.28;100.00;101554.72;4850928;29;20067;-77
2021/07/08 12:41:01;;;;;;;8.02;5.97;;;;;;;32.49;100.00;101554.53;4864171;29;20348;-77
2021/07/08 12:43:47;;;;;;;7.95;5.80;;;;;;;32.14;100.00;101552.44;4863785;29;20129;-76